sensor_id;sensor_type;location;lat;lon;timestamp;P1;durP1;ratioP1;P2;durP2;ratioP2
21305;SDS011;10812;51.838;5.838;2022-07-29T00:01:17;2.03;;;1.13;;
21305;SDS011;10812;51.838;5.838;2022-07-29T00:03:47;2.57;;;1.10;;
21305;SDS011;10812;51.838;5.838;2022-07-29T00:06:15;3.97;;;1.27;;
21305;SDS011;10812;51.838;5.838;2022-07-29T00:08:44;3.83;;;1.20;;
21305;SDS011;10812;51.838;5.838;2022-07-29T00:11:12;1.57;;;1.00;;
21305;SDS011;10812;51.838;5.838;2022-07-29T00:13:40;3.23;;;1.27;;
21305;SDS011;10812;51.838;5.838;2022-07-29T00:16:15;3.00;;;1.10;;
21305;SDS011;10812;51.838;5.838;2022-07-29T00:18:45;2.47;;;0.97;;
21305;SDS011;10812;51.838;5.838;2022-07-29T00:21:13;3.53;;;0.93;;
21305;SDS011;10812;51.838;5.838;2022-07-29T00:23:41;2.67;;;1.00;;
21305;SDS011;10812;51.838;5.838;2022-07-29T00:26:09;2.60;;;1.20;;
21305;SDS011;10812;51.838;5.838;2022-07-29T00:28:37;2.63;;;1.00;;
21305;SDS011;10812;51.838;5.838;2022-07-29T00:31:05;2.90;;;1.20;;
21305;SDS011;10812;51.838;5.838;2022-07-29T00:33:34;1.40;;;1.10;;
21305;SDS011;10812;51.838;5.838;2022-07-29T00:36:04;1.60;;;1.30;;
21305;SDS011;10812;51.838;5.838;2022-07-29T00:38:31;2.83;;;0.90;;
21305;SDS011;10812;51.838;5.838;2022-07-29T00:40:59;2.23;;;0.93;;
21305;SDS011;10812;51.838;5.838;2022-07-29T00:43:27;6.93;;;1.10;;
21305;SDS011;10812;51.838;5.838;2022-07-29T00:45:55;3.50;;;1.20;;
21305;SDS011;10812;51.838;5.838;2022-07-29T00:48:23;1.77;;;1.17;;
21305;SDS011;10812;51.838;5.838;2022-07-29T00:50:51;2.33;;;1.23;;
21305;SDS011;10812;51.838;5.838;2022-07-29T00:53:21;2.20;;;1.03;;
21305;SDS011;10812;51.838;5.838;2022-07-29T00:55:50;1.57;;;1.00;;
21305;SDS011;10812;51.838;5.838;2022-07-29T00:58:18;1.03;;;0.80;;
21305;SDS011;10812;51.838;5.838;2022-07-29T01:00:46;2.07;;;1.40;;
21305;SDS011;10812;51.838;5.838;2022-07-29T01:03:15;1.83;;;0.90;;
21305;SDS011;10812;51.838;5.838;2022-07-29T01:05:43;2.33;;;1.07;;
21305;SDS011;10812;51.838;5.838;2022-07-29T01:08:16;1.83;;;0.97;;
21305;SDS011;10812;51.838;5.838;2022-07-29T01:10:47;2.73;;;0.97;;
21305;SDS011;10812;51.838;5.838;2022-07-29T01:13:16;2.33;;;1.13;;
21305;SDS011;10812;51.838;5.838;2022-07-29T01:15:46;2.30;;;1.23;;
21305;SDS011;10812;51.838;5.838;2022-07-29T01:18:20;3.40;;;1.17;;
21305;SDS011;10812;51.838;5.838;2022-07-29T01:21:06;2.33;;;1.30;;
21305;SDS011;10812;51.838;5.838;2022-07-29T01:27:13;4.87;;;1.43;;
21305;SDS011;10812;51.838;5.838;2022-07-29T01:29:59;2.40;;;1.10;;
21305;SDS011;10812;51.838;5.838;2022-07-29T01:32:31;2.63;;;1.10;;
21305;SDS011;10812;51.838;5.838;2022-07-29T01:35:03;3.03;;;1.20;;
21305;SDS011;10812;51.838;5.838;2022-07-29T01:37:39;4.10;;;1.30;;
21305;SDS011;10812;51.838;5.838;2022-07-29T01:40:14;2.93;;;1.03;;
21305;SDS011;10812;51.838;5.838;2022-07-29T01:50:28;1.77;;;1.40;;
21305;SDS011;10812;51.838;5.838;2022-07-29T01:53:02;2.17;;;1.20;;
21305;SDS011;10812;51.838;5.838;2022-07-29T01:55:36;6.43;;;1.53;;
21305;SDS011;10812;51.838;5.838;2022-07-29T01:58:07;1.40;;;1.10;;
21305;SDS011;10812;51.838;5.838;2022-07-29T02:00:37;2.63;;;1.30;;
21305;SDS011;10812;51.838;5.838;2022-07-29T02:03:09;2.87;;;1.40;;
21305;SDS011;10812;51.838;5.838;2022-07-29T02:05:41;2.70;;;1.63;;
21305;SDS011;10812;51.838;5.838;2022-07-29T02:08:12;5.20;;;1.90;;
21305;SDS011;10812;51.838;5.838;2022-07-29T02:10:42;2.73;;;2.07;;
21305;SDS011;10812;51.838;5.838;2022-07-29T02:13:13;2.83;;;1.90;;
21305;SDS011;10812;51.838;5.838;2022-07-29T02:15:42;2.80;;;1.90;;
21305;SDS011;10812;51.838;5.838;2022-07-29T02:18:13;1.80;;;1.60;;
21305;SDS011;10812;51.838;5.838;2022-07-29T02:20:47;2.57;;;1.93;;
21305;SDS011;10812;51.838;5.838;2022-07-29T02:23:18;5.20;;;2.03;;
21305;SDS011;10812;51.838;5.838;2022-07-29T02:25:48;2.90;;;2.23;;
21305;SDS011;10812;51.838;5.838;2022-07-29T02:28:17;4.03;;;2.10;;
21305;SDS011;10812;51.838;5.838;2022-07-29T02:30:47;3.57;;;2.10;;
21305;SDS011;10812;51.838;5.838;2022-07-29T02:33:18;2.67;;;2.10;;
21305;SDS011;10812;51.838;5.838;2022-07-29T02:35:49;3.83;;;2.13;;
21305;SDS011;10812;51.838;5.838;2022-07-29T02:38:18;2.93;;;1.90;;
21305;SDS011;10812;51.838;5.838;2022-07-29T02:41:08;3.37;;;2.07;;
21305;SDS011;10812;51.838;5.838;2022-07-29T02:43:38;3.93;;;2.30;;
21305;SDS011;10812;51.838;5.838;2022-07-29T02:46:08;4.23;;;2.90;;
21305;SDS011;10812;51.838;5.838;2022-07-29T02:48:56;2.57;;;2.33;;
21305;SDS011;10812;51.838;5.838;2022-07-29T02:51:45;3.00;;;2.13;;
21305;SDS011;10812;51.838;5.838;2022-07-29T02:54:21;8.03;;;2.70;;
21305;SDS011;10812;51.838;5.838;2022-07-29T03:06:05;6.30;;;3.13;;
21305;SDS011;10812;51.838;5.838;2022-07-29T03:08:56;4.87;;;3.43;;
21305;SDS011;10812;51.838;5.838;2022-07-29T03:14:56;4.30;;;3.23;;
21305;SDS011;10812;51.838;5.838;2022-07-29T03:17:26;5.10;;;3.03;;
21305;SDS011;10812;51.838;5.838;2022-07-29T03:19:54;4.60;;;3.30;;
21305;SDS011;10812;51.838;5.838;2022-07-29T03:22:23;5.27;;;3.57;;
21305;SDS011;10812;51.838;5.838;2022-07-29T03:24:53;5.20;;;2.80;;
21305;SDS011;10812;51.838;5.838;2022-07-29T03:27:21;4.70;;;3.60;;
21305;SDS011;10812;51.838;5.838;2022-07-29T03:29:49;7.50;;;3.40;;
21305;SDS011;10812;51.838;5.838;2022-07-29T03:32:18;6.63;;;2.70;;
21305;SDS011;10812;51.838;5.838;2022-07-29T03:34:50;3.53;;;2.43;;
21305;SDS011;10812;51.838;5.838;2022-07-29T03:37:18;3.50;;;3.20;;
21305;SDS011;10812;51.838;5.838;2022-07-29T03:39:46;5.20;;;3.17;;
21305;SDS011;10812;51.838;5.838;2022-07-29T03:42:18;4.80;;;3.23;;
21305;SDS011;10812;51.838;5.838;2022-07-29T03:44:50;6.00;;;3.30;;
21305;SDS011;10812;51.838;5.838;2022-07-29T03:47:21;7.30;;;3.43;;
21305;SDS011;10812;51.838;5.838;2022-07-29T03:50:13;5.07;;;3.03;;
21305;SDS011;10812;51.838;5.838;2022-07-29T03:52:42;4.27;;;3.23;;
21305;SDS011;10812;51.838;5.838;2022-07-29T03:55:10;5.73;;;4.00;;
21305;SDS011;10812;51.838;5.838;2022-07-29T03:57:41;5.27;;;3.20;;
21305;SDS011;10812;51.838;5.838;2022-07-29T04:00:10;3.67;;;3.23;;
21305;SDS011;10812;51.838;5.838;2022-07-29T04:02:39;4.87;;;3.40;;
21305;SDS011;10812;51.838;5.838;2022-07-29T04:05:11;3.73;;;2.60;;
21305;SDS011;10812;51.838;5.838;2022-07-29T04:07:39;3.73;;;2.90;;
21305;SDS011;10812;51.838;5.838;2022-07-29T04:10:07;4.53;;;3.33;;
21305;SDS011;10812;51.838;5.838;2022-07-29T04:12:36;3.23;;;2.77;;
21305;SDS011;10812;51.838;5.838;2022-07-29T04:15:06;4.50;;;3.30;;
21305;SDS011;10812;51.838;5.838;2022-07-29T04:17:34;3.53;;;2.97;;
21305;SDS011;10812;51.838;5.838;2022-07-29T04:20:03;7.07;;;3.67;;
21305;SDS011;10812;51.838;5.838;2022-07-29T04:22:32;3.40;;;3.07;;
21305;SDS011;10812;51.838;5.838;2022-07-29T04:25:00;5.47;;;2.97;;
21305;SDS011;10812;51.838;5.838;2022-07-29T04:27:29;5.60;;;3.73;;
21305;SDS011;10812;51.838;5.838;2022-07-29T04:29:57;6.80;;;3.23;;
21305;SDS011;10812;51.838;5.838;2022-07-29T04:32:27;4.37;;;2.83;;
21305;SDS011;10812;51.838;5.838;2022-07-29T04:34:55;2.80;;;2.60;;
21305;SDS011;10812;51.838;5.838;2022-07-29T04:37:23;4.23;;;2.80;;
21305;SDS011;10812;51.838;5.838;2022-07-29T04:39:51;3.97;;;3.43;;
21305;SDS011;10812;51.838;5.838;2022-07-29T04:42:19;5.07;;;3.03;;
21305;SDS011;10812;51.838;5.838;2022-07-29T04:44:53;5.60;;;3.17;;
21305;SDS011;10812;51.838;5.838;2022-07-29T04:47:21;3.60;;;3.00;;
21305;SDS011;10812;51.838;5.838;2022-07-29T04:49:50;4.17;;;2.60;;
21305;SDS011;10812;51.838;5.838;2022-07-29T04:52:19;4.10;;;2.97;;
21305;SDS011;10812;51.838;5.838;2022-07-29T04:54:47;3.43;;;2.87;;
21305;SDS011;10812;51.838;5.838;2022-07-29T04:57:15;5.30;;;3.30;;
21305;SDS011;10812;51.838;5.838;2022-07-29T04:59:43;6.37;;;3.43;;
21305;SDS011;10812;51.838;5.838;2022-07-29T05:02:11;5.03;;;3.03;;
21305;SDS011;10812;51.838;5.838;2022-07-29T05:04:39;3.60;;;3.03;;
21305;SDS011;10812;51.838;5.838;2022-07-29T05:07:09;5.37;;;2.70;;
21305;SDS011;10812;51.838;5.838;2022-07-29T05:09:37;4.97;;;2.80;;
21305;SDS011;10812;51.838;5.838;2022-07-29T05:12:05;3.27;;;2.97;;
21305;SDS011;10812;51.838;5.838;2022-07-29T05:14:34;4.53;;;2.87;;
21305;SDS011;10812;51.838;5.838;2022-07-29T05:17:02;3.80;;;2.97;;
21305;SDS011;10812;51.838;5.838;2022-07-29T05:19:30;3.77;;;3.03;;
21305;SDS011;10812;51.838;5.838;2022-07-29T05:22:04;3.97;;;2.67;;
21305;SDS011;10812;51.838;5.838;2022-07-29T05:24:34;4.60;;;3.00;;
21305;SDS011;10812;51.838;5.838;2022-07-29T05:27:02;6.77;;;3.20;;
21305;SDS011;10812;51.838;5.838;2022-07-29T05:29:30;2.97;;;2.63;;
21305;SDS011;10812;51.838;5.838;2022-07-29T05:32:10;6.60;;;3.57;;
21305;SDS011;10812;51.838;5.838;2022-07-29T05:34:38;4.40;;;2.90;;
21305;SDS011;10812;51.838;5.838;2022-07-29T05:37:17;5.07;;;3.00;;
21305;SDS011;10812;51.838;5.838;2022-07-29T05:39:47;4.63;;;3.03;;
21305;SDS011;10812;51.838;5.838;2022-07-29T05:42:22;4.77;;;2.97;;
21305;SDS011;10812;51.838;5.838;2022-07-29T05:44:50;3.83;;;3.13;;
21305;SDS011;10812;51.838;5.838;2022-07-29T05:47:19;3.67;;;3.37;;
21305;SDS011;10812;51.838;5.838;2022-07-29T05:49:47;5.37;;;3.37;;
21305;SDS011;10812;51.838;5.838;2022-07-29T05:52:15;3.10;;;2.70;;
21305;SDS011;10812;51.838;5.838;2022-07-29T05:54:44;3.07;;;2.57;;
21305;SDS011;10812;51.838;5.838;2022-07-29T05:57:16;3.87;;;3.30;;
21305;SDS011;10812;51.838;5.838;2022-07-29T05:59:45;4.80;;;3.20;;
21305;SDS011;10812;51.838;5.838;2022-07-29T06:02:13;4.47;;;2.93;;
21305;SDS011;10812;51.838;5.838;2022-07-29T06:04:42;3.50;;;2.77;;
21305;SDS011;10812;51.838;5.838;2022-07-29T06:07:10;4.43;;;3.27;;
21305;SDS011;10812;51.838;5.838;2022-07-29T06:09:38;8.00;;;3.40;;
21305;SDS011;10812;51.838;5.838;2022-07-29T06:12:06;3.93;;;2.83;;
21305;SDS011;10812;51.838;5.838;2022-07-29T06:14:36;4.43;;;3.23;;
21305;SDS011;10812;51.838;5.838;2022-07-29T06:17:04;4.93;;;2.90;;
21305;SDS011;10812;51.838;5.838;2022-07-29T06:19:33;4.47;;;3.03;;
21305;SDS011;10812;51.838;5.838;2022-07-29T06:22:02;4.40;;;3.30;;
21305;SDS011;10812;51.838;5.838;2022-07-29T06:24:30;4.03;;;3.07;;
21305;SDS011;10812;51.838;5.838;2022-07-29T06:26:59;3.53;;;2.70;;
21305;SDS011;10812;51.838;5.838;2022-07-29T06:29:27;3.17;;;2.50;;
21305;SDS011;10812;51.838;5.838;2022-07-29T06:31:56;2.90;;;2.30;;
21305;SDS011;10812;51.838;5.838;2022-07-29T06:34:24;2.83;;;2.30;;
21305;SDS011;10812;51.838;5.838;2022-07-29T06:36:52;3.73;;;2.80;;
21305;SDS011;10812;51.838;5.838;2022-07-29T06:39:21;4.30;;;2.27;;
21305;SDS011;10812;51.838;5.838;2022-07-29T06:41:49;4.07;;;2.50;;
21305;SDS011;10812;51.838;5.838;2022-07-29T06:44:18;3.50;;;2.43;;
21305;SDS011;10812;51.838;5.838;2022-07-29T06:46:46;3.90;;;2.67;;
21305;SDS011;10812;51.838;5.838;2022-07-29T06:49:17;3.80;;;2.70;;
21305;SDS011;10812;51.838;5.838;2022-07-29T06:51:45;4.00;;;2.90;;
21305;SDS011;10812;51.838;5.838;2022-07-29T06:54:13;3.63;;;2.70;;
21305;SDS011;10812;51.838;5.838;2022-07-29T06:56:42;7.70;;;2.97;;
21305;SDS011;10812;51.838;5.838;2022-07-29T06:59:10;4.27;;;2.53;;
21305;SDS011;10812;51.838;5.838;2022-07-29T07:01:41;5.13;;;2.60;;
21305;SDS011;10812;51.838;5.838;2022-07-29T07:04:10;4.17;;;2.77;;
21305;SDS011;10812;51.838;5.838;2022-07-29T07:06:41;4.97;;;2.77;;
21305;SDS011;10812;51.838;5.838;2022-07-29T07:09:10;4.10;;;2.70;;
21305;SDS011;10812;51.838;5.838;2022-07-29T07:11:38;2.90;;;2.60;;
21305;SDS011;10812;51.838;5.838;2022-07-29T07:14:06;3.87;;;2.70;;
21305;SDS011;10812;51.838;5.838;2022-07-29T07:16:35;5.88;;;3.28;;
21305;SDS011;10812;51.838;5.838;2022-07-29T07:19:03;4.37;;;2.60;;
21305;SDS011;10812;51.838;5.838;2022-07-29T07:21:32;3.80;;;2.50;;
21305;SDS011;10812;51.838;5.838;2022-07-29T07:24:02;6.93;;;2.90;;
21305;SDS011;10812;51.838;5.838;2022-07-29T07:26:31;3.03;;;2.67;;
21305;SDS011;10812;51.838;5.838;2022-07-29T07:28:59;4.65;;;3.13;;
21305;SDS011;10812;51.838;5.838;2022-07-29T07:31:27;4.33;;;3.10;;
21305;SDS011;10812;51.838;5.838;2022-07-29T07:33:55;7.07;;;3.20;;
21305;SDS011;10812;51.838;5.838;2022-07-29T07:36:24;5.33;;;3.00;;
21305;SDS011;10812;51.838;5.838;2022-07-29T07:38:52;4.50;;;3.10;;
21305;SDS011;10812;51.838;5.838;2022-07-29T07:41:21;5.47;;;2.93;;
21305;SDS011;10812;51.838;5.838;2022-07-29T07:43:49;4.30;;;3.00;;
21305;SDS011;10812;51.838;5.838;2022-07-29T07:46:18;3.77;;;2.83;;
21305;SDS011;10812;51.838;5.838;2022-07-29T07:48:46;5.37;;;3.30;;
21305;SDS011;10812;51.838;5.838;2022-07-29T07:51:14;4.37;;;3.20;;
21305;SDS011;10812;51.838;5.838;2022-07-29T07:53:42;4.80;;;3.20;;
21305;SDS011;10812;51.838;5.838;2022-07-29T07:56:10;5.23;;;3.13;;
21305;SDS011;10812;51.838;5.838;2022-07-29T07:58:40;8.13;;;3.20;;
21305;SDS011;10812;51.838;5.838;2022-07-29T08:01:08;4.73;;;2.97;;
21305;SDS011;10812;51.838;5.838;2022-07-29T08:03:37;6.30;;;3.20;;
21305;SDS011;10812;51.838;5.838;2022-07-29T08:06:05;4.68;;;2.95;;
21305;SDS011;10812;51.838;5.838;2022-07-29T08:08:33;3.22;;;2.80;;
21305;SDS011;10812;51.838;5.838;2022-07-29T08:11:01;7.68;;;3.53;;
21305;SDS011;10812;51.838;5.838;2022-07-29T08:13:35;3.83;;;2.97;;
21305;SDS011;10812;51.838;5.838;2022-07-29T08:16:05;7.35;;;3.75;;
21305;SDS011;10812;51.838;5.838;2022-07-29T08:18:41;5.50;;;3.67;;
21305;SDS011;10812;51.838;5.838;2022-07-29T08:21:11;4.60;;;3.05;;
21305;SDS011;10812;51.838;5.838;2022-07-29T08:23:40;5.35;;;2.90;;
21305;SDS011;10812;51.838;5.838;2022-07-29T08:26:24;4.45;;;2.92;;
21305;SDS011;10812;51.838;5.838;2022-07-29T08:28:52;3.47;;;2.70;;
21305;SDS011;10812;51.838;5.838;2022-07-29T08:31:21;3.85;;;2.95;;
21305;SDS011;10812;51.838;5.838;2022-07-29T08:33:50;5.47;;;2.97;;
21305;SDS011;10812;51.838;5.838;2022-07-29T08:36:18;6.65;;;2.67;;
21305;SDS011;10812;51.838;5.838;2022-07-29T08:38:47;2.85;;;2.42;;
21305;SDS011;10812;51.838;5.838;2022-07-29T08:41:15;3.50;;;2.83;;
21305;SDS011;10812;51.838;5.838;2022-07-29T08:43:45;4.82;;;2.72;;
21305;SDS011;10812;51.838;5.838;2022-07-29T08:46:13;4.30;;;2.75;;
21305;SDS011;10812;51.838;5.838;2022-07-29T08:48:43;5.07;;;2.80;;
21305;SDS011;10812;51.838;5.838;2022-07-29T08:51:12;5.07;;;3.00;;
21305;SDS011;10812;51.838;5.838;2022-07-29T08:53:41;5.78;;;3.05;;
21305;SDS011;10812;51.838;5.838;2022-07-29T08:56:11;5.90;;;3.45;;
21305;SDS011;10812;51.838;5.838;2022-07-29T08:58:40;6.32;;;3.03;;
21305;SDS011;10812;51.838;5.838;2022-07-29T09:01:21;5.32;;;3.05;;
21305;SDS011;10812;51.838;5.838;2022-07-29T09:04:03;7.13;;;3.17;;
21305;SDS011;10812;51.838;5.838;2022-07-29T09:06:36;3.08;;;2.72;;
21305;SDS011;10812;51.838;5.838;2022-07-29T09:09:07;4.40;;;2.88;;
21305;SDS011;10812;51.838;5.838;2022-07-29T09:11:35;4.07;;;3.20;;
21305;SDS011;10812;51.838;5.838;2022-07-29T09:14:03;6.57;;;3.22;;
21305;SDS011;10812;51.838;5.838;2022-07-29T09:16:44;3.78;;;3.45;;
21305;SDS011;10812;51.838;5.838;2022-07-29T09:19:21;5.95;;;3.30;;
21305;SDS011;10812;51.838;5.838;2022-07-29T09:21:50;6.13;;;3.33;;
21305;SDS011;10812;51.838;5.838;2022-07-29T09:27:20;6.03;;;3.47;;
21305;SDS011;10812;51.838;5.838;2022-07-29T09:29:56;6.25;;;3.30;;
21305;SDS011;10812;51.838;5.838;2022-07-29T09:32:25;4.18;;;3.00;;
21305;SDS011;10812;51.838;5.838;2022-07-29T09:37:49;4.68;;;2.75;;
21305;SDS011;10812;51.838;5.838;2022-07-29T09:40:18;5.82;;;2.70;;
21305;SDS011;10812;51.838;5.838;2022-07-29T09:42:47;4.65;;;2.80;;
21305;SDS011;10812;51.838;5.838;2022-07-29T09:45:25;5.15;;;3.72;;
21305;SDS011;10812;51.838;5.838;2022-07-29T09:47:54;5.88;;;3.42;;
21305;SDS011;10812;51.838;5.838;2022-07-29T09:50:35;5.05;;;3.13;;
21305;SDS011;10812;51.838;5.838;2022-07-29T09:53:05;3.05;;;2.72;;
21305;SDS011;10812;51.838;5.838;2022-07-29T09:55:45;4.88;;;3.10;;
21305;SDS011;10812;51.838;5.838;2022-07-29T09:58:15;4.07;;;2.70;;
21305;SDS011;10812;51.838;5.838;2022-07-29T10:00:44;3.05;;;2.50;;
21305;SDS011;10812;51.838;5.838;2022-07-29T10:03:14;4.72;;;3.35;;
21305;SDS011;10812;51.838;5.838;2022-07-29T10:05:44;3.85;;;2.80;;
21305;SDS011;10812;51.838;5.838;2022-07-29T10:08:13;8.63;;;3.30;;
21305;SDS011;10812;51.838;5.838;2022-07-29T10:10:51;5.47;;;2.92;;
21305;SDS011;10812;51.838;5.838;2022-07-29T10:13:36;3.60;;;2.90;;
21305;SDS011;10812;51.838;5.838;2022-07-29T10:16:05;4.38;;;2.40;;
21305;SDS011;10812;51.838;5.838;2022-07-29T10:18:34;5.95;;;3.10;;
21305;SDS011;10812;51.838;5.838;2022-07-29T10:21:06;4.68;;;2.78;;
21305;SDS011;10812;51.838;5.838;2022-07-29T10:23:35;6.18;;;3.22;;
21305;SDS011;10812;51.838;5.838;2022-07-29T10:26:12;5.50;;;2.95;;
21305;SDS011;10812;51.838;5.838;2022-07-29T10:28:40;4.68;;;3.15;;
21305;SDS011;10812;51.838;5.838;2022-07-29T10:31:11;3.45;;;3.13;;
21305;SDS011;10812;51.838;5.838;2022-07-29T10:33:46;3.97;;;2.70;;
21305;SDS011;10812;51.838;5.838;2022-07-29T10:36:27;3.65;;;2.97;;
21305;SDS011;10812;51.838;5.838;2022-07-29T10:39:11;3.70;;;2.70;;
21305;SDS011;10812;51.838;5.838;2022-07-29T10:41:53;4.80;;;2.67;;
21305;SDS011;10812;51.838;5.838;2022-07-29T10:44:30;3.95;;;2.38;;
21305;SDS011;10812;51.838;5.838;2022-07-29T10:47:00;4.72;;;2.50;;
21305;SDS011;10812;51.838;5.838;2022-07-29T10:49:28;3.95;;;2.88;;
21305;SDS011;10812;51.838;5.838;2022-07-29T10:52:02;2.92;;;2.72;;
21305;SDS011;10812;51.838;5.838;2022-07-29T10:54:42;4.05;;;2.65;;
21305;SDS011;10812;51.838;5.838;2022-07-29T10:57:17;5.75;;;3.08;;
21305;SDS011;10812;51.838;5.838;2022-07-29T11:00:30;4.60;;;2.80;;
21305;SDS011;10812;51.838;5.838;2022-07-29T11:02:59;4.82;;;3.05;;
21305;SDS011;10812;51.838;5.838;2022-07-29T11:05:55;5.65;;;3.50;;
21305;SDS011;10812;51.838;5.838;2022-07-29T11:08:26;6.18;;;3.50;;
21305;SDS011;10812;51.838;5.838;2022-07-29T11:14:00;7.40;;;3.42;;
21305;SDS011;10812;51.838;5.838;2022-07-29T11:16:57;4.80;;;3.33;;
21305;SDS011;10812;51.838;5.838;2022-07-29T11:19:32;9.02;;;3.88;;
21305;SDS011;10812;51.838;5.838;2022-07-29T11:22:01;8.80;;;3.30;;
21305;SDS011;10812;51.838;5.838;2022-07-29T11:24:32;6.80;;;3.72;;
21305;SDS011;10812;51.838;5.838;2022-07-29T11:27:14;3.22;;;2.92;;
21305;SDS011;10812;51.838;5.838;2022-07-29T11:29:52;5.47;;;2.80;;
21305;SDS011;10812;51.838;5.838;2022-07-29T11:32:24;6.47;;;3.40;;
21305;SDS011;10812;51.838;5.838;2022-07-29T11:35:12;4.38;;;2.85;;
21305;SDS011;10812;51.838;5.838;2022-07-29T11:37:44;6.50;;;3.10;;
21305;SDS011;10812;51.838;5.838;2022-07-29T11:40:24;5.78;;;3.20;;
21305;SDS011;10812;51.838;5.838;2022-07-29T11:42:52;6.07;;;3.05;;
21305;SDS011;10812;51.838;5.838;2022-07-29T11:45:24;5.43;;;2.70;;
21305;SDS011;10812;51.838;5.838;2022-07-29T11:48:15;6.78;;;3.35;;
21305;SDS011;10812;51.838;5.838;2022-07-29T11:50:57;5.32;;;3.05;;
21305;SDS011;10812;51.838;5.838;2022-07-29T11:53:26;7.47;;;3.10;;
21305;SDS011;10812;51.838;5.838;2022-07-29T11:56:15;4.05;;;2.60;;
21305;SDS011;10812;51.838;5.838;2022-07-29T11:58:51;6.07;;;3.45;;
21305;SDS011;10812;51.838;5.838;2022-07-29T12:01:33;4.88;;;2.47;;
21305;SDS011;10812;51.838;5.838;2022-07-29T12:04:02;3.75;;;2.60;;
21305;SDS011;10812;51.838;5.838;2022-07-29T12:06:32;5.22;;;2.42;;
21305;SDS011;10812;51.838;5.838;2022-07-29T12:09:00;5.32;;;3.15;;
21305;SDS011;10812;51.838;5.838;2022-07-29T12:11:41;9.25;;;3.03;;
21305;SDS011;10812;51.838;5.838;2022-07-29T12:14:25;3.40;;;2.60;;
21305;SDS011;10812;51.838;5.838;2022-07-29T12:16:54;7.03;;;3.17;;
21305;SDS011;10812;51.838;5.838;2022-07-29T12:19:23;3.22;;;2.90;;
21305;SDS011;10812;51.838;5.838;2022-07-29T12:21:52;3.10;;;2.70;;
21305;SDS011;10812;51.838;5.838;2022-07-29T12:24:26;5.38;;;2.90;;
21305;SDS011;10812;51.838;5.838;2022-07-29T12:27:11;2.72;;;1.83;;
21305;SDS011;10812;51.838;5.838;2022-07-29T12:29:55;3.35;;;2.08;;
21305;SDS011;10812;51.838;5.838;2022-07-29T12:32:23;3.95;;;1.90;;
21305;SDS011;10812;51.838;5.838;2022-07-29T12:34:59;2.55;;;2.05;;
21305;SDS011;10812;51.838;5.838;2022-07-29T12:37:32;3.17;;;1.98;;
21305;SDS011;10812;51.838;5.838;2022-07-29T12:40:08;3.22;;;2.58;;
21305;SDS011;10812;51.838;5.838;2022-07-29T12:42:40;4.65;;;2.60;;
21305;SDS011;10812;51.838;5.838;2022-07-29T12:45:08;4.05;;;2.40;;
21305;SDS011;10812;51.838;5.838;2022-07-29T12:47:50;3.90;;;1.92;;
21305;SDS011;10812;51.838;5.838;2022-07-29T12:50:19;2.38;;;2.15;;
21305;SDS011;10812;51.838;5.838;2022-07-29T12:52:51;4.35;;;2.05;;
21305;SDS011;10812;51.838;5.838;2022-07-29T12:58:07;3.88;;;2.80;;
21305;SDS011;10812;51.838;5.838;2022-07-29T13:00:35;4.53;;;2.72;;
21305;SDS011;10812;51.838;5.838;2022-07-29T13:03:04;5.78;;;2.30;;
21305;SDS011;10812;51.838;5.838;2022-07-29T13:08:27;6.68;;;2.85;;
21305;SDS011;10812;51.838;5.838;2022-07-29T13:10:55;3.33;;;2.20;;
21305;SDS011;10812;51.838;5.838;2022-07-29T13:13:24;4.22;;;2.65;;
21305;SDS011;10812;51.838;5.838;2022-07-29T13:16:05;4.18;;;2.50;;
21305;SDS011;10812;51.838;5.838;2022-07-29T13:18:34;4.93;;;2.42;;
21305;SDS011;10812;51.838;5.838;2022-07-29T13:21:10;4.72;;;2.65;;
21305;SDS011;10812;51.838;5.838;2022-07-29T13:23:39;4.30;;;2.50;;
21305;SDS011;10812;51.838;5.838;2022-07-29T13:45:13;4.55;;;2.28;;
21305;SDS011;10812;51.838;5.838;2022-07-29T13:47:41;3.38;;;1.80;;
21305;SDS011;10812;51.838;5.838;2022-07-29T13:50:14;5.47;;;1.70;;
21305;SDS011;10812;51.838;5.838;2022-07-29T13:52:42;4.13;;;2.65;;
21305;SDS011;10812;51.838;5.838;2022-07-29T13:55:11;4.43;;;2.03;;
21305;SDS011;10812;51.838;5.838;2022-07-29T13:57:39;5.40;;;1.73;;
21305;SDS011;10812;51.838;5.838;2022-07-29T14:00:07;3.58;;;1.83;;
21305;SDS011;10812;51.838;5.838;2022-07-29T14:02:38;3.70;;;1.98;;
21305;SDS011;10812;51.838;5.838;2022-07-29T14:05:06;4.47;;;2.10;;
21305;SDS011;10812;51.838;5.838;2022-07-29T14:07:36;4.50;;;2.20;;
21305;SDS011;10812;51.838;5.838;2022-07-29T14:10:06;3.30;;;2.13;;
21305;SDS011;10812;51.838;5.838;2022-07-29T14:12:35;5.05;;;2.58;;
21305;SDS011;10812;51.838;5.838;2022-07-29T14:15:03;2.65;;;1.92;;
21305;SDS011;10812;51.838;5.838;2022-07-29T14:17:32;4.05;;;2.03;;
21305;SDS011;10812;51.838;5.838;2022-07-29T14:20:02;1.83;;;1.65;;
21305;SDS011;10812;51.838;5.838;2022-07-29T14:22:30;2.42;;;1.90;;
21305;SDS011;10812;51.838;5.838;2022-07-29T14:25:07;5.07;;;2.03;;
21305;SDS011;10812;51.838;5.838;2022-07-29T14:27:40;4.18;;;1.70;;
21305;SDS011;10812;51.838;5.838;2022-07-29T14:30:09;3.33;;;1.80;;
21305;SDS011;10812;51.838;5.838;2022-07-29T14:32:38;3.40;;;1.90;;
21305;SDS011;10812;51.838;5.838;2022-07-29T14:35:08;3.33;;;1.88;;
21305;SDS011;10812;51.838;5.838;2022-07-29T14:37:37;4.22;;;2.08;;
21305;SDS011;10812;51.838;5.838;2022-07-29T14:40:06;2.78;;;1.50;;
21305;SDS011;10812;51.838;5.838;2022-07-29T14:42:35;5.72;;;1.80;;
21305;SDS011;10812;51.838;5.838;2022-07-29T14:45:04;2.88;;;1.98;;
21305;SDS011;10812;51.838;5.838;2022-07-29T14:47:34;3.70;;;1.70;;
21305;SDS011;10812;51.838;5.838;2022-07-29T14:50:02;4.32;;;2.17;;
21305;SDS011;10812;51.838;5.838;2022-07-29T14:52:33;5.63;;;2.28;;
21305;SDS011;10812;51.838;5.838;2022-07-29T14:55:01;2.70;;;2.08;;
21305;SDS011;10812;51.838;5.838;2022-07-29T14:57:41;3.70;;;2.08;;
21305;SDS011;10812;51.838;5.838;2022-07-29T15:00:09;3.38;;;1.83;;
21305;SDS011;10812;51.838;5.838;2022-07-29T15:02:38;2.83;;;1.70;;
21305;SDS011;10812;51.838;5.838;2022-07-29T15:05:26;3.90;;;2.17;;
21305;SDS011;10812;51.838;5.838;2022-07-29T15:07:56;3.42;;;2.00;;
21305;SDS011;10812;51.838;5.838;2022-07-29T15:10:25;3.88;;;1.92;;
21305;SDS011;10812;51.838;5.838;2022-07-29T15:12:53;4.47;;;2.03;;
21305;SDS011;10812;51.838;5.838;2022-07-29T15:15:21;3.05;;;1.98;;
21305;SDS011;10812;51.838;5.838;2022-07-29T15:17:50;3.97;;;1.98;;
21305;SDS011;10812;51.838;5.838;2022-07-29T15:20:18;3.40;;;1.85;;
21305;SDS011;10812;51.838;5.838;2022-07-29T15:22:47;6.18;;;1.98;;
21305;SDS011;10812;51.838;5.838;2022-07-29T15:25:16;3.40;;;2.10;;
21305;SDS011;10812;51.838;5.838;2022-07-29T15:27:44;2.53;;;2.05;;
21305;SDS011;10812;51.838;5.838;2022-07-29T15:30:18;5.03;;;2.30;;
21305;SDS011;10812;51.838;5.838;2022-07-29T15:32:59;3.47;;;1.90;;
21305;SDS011;10812;51.838;5.838;2022-07-29T15:35:28;3.38;;;1.80;;
21305;SDS011;10812;51.838;5.838;2022-07-29T15:37:56;6.43;;;2.00;;
21305;SDS011;10812;51.838;5.838;2022-07-29T15:40:25;3.47;;;1.65;;
21305;SDS011;10812;51.838;5.838;2022-07-29T15:42:54;2.97;;;1.88;;
21305;SDS011;10812;51.838;5.838;2022-07-29T15:45:22;2.95;;;1.83;;
21305;SDS011;10812;51.838;5.838;2022-07-29T15:47:50;2.92;;;2.22;;
21305;SDS011;10812;51.838;5.838;2022-07-29T15:50:18;7.55;;;2.80;;
21305;SDS011;10812;51.838;5.838;2022-07-29T15:52:46;6.65;;;2.55;;
21305;SDS011;10812;51.838;5.838;2022-07-29T15:55:14;2.10;;;2.00;;
21305;SDS011;10812;51.838;5.838;2022-07-29T15:57:45;5.93;;;2.15;;
21305;SDS011;10812;51.838;5.838;2022-07-29T16:00:13;5.25;;;2.28;;
21305;SDS011;10812;51.838;5.838;2022-07-29T16:02:43;6.28;;;2.65;;
21305;SDS011;10812;51.838;5.838;2022-07-29T16:05:11;5.15;;;2.40;;
21305;SDS011;10812;51.838;5.838;2022-07-29T16:07:39;7.13;;;2.92;;
21305;SDS011;10812;51.838;5.838;2022-07-29T16:10:07;10.93;;;3.10;;